createdAt,value
2023-01-23T00:03:41.225Z,16.70
2023-01-23T00:08:46.803Z,15.43
2023-01-23T00:13:52.885Z,16.67
2023-01-23T00:18:57.584Z,17.20
2023-01-23T00:24:02.846Z,16.38
2023-01-23T00:29:09.037Z,17.42
2023-01-23T00:34:15.244Z,14.85
2023-01-23T00:39:21.565Z,13.70
2023-01-23T00:44:27.285Z,13.35
2023-01-23T00:54:38.289Z,11.65
2023-01-23T00:59:43.963Z,13.10
2023-01-23T01:09:52.412Z,11.98
2023-01-23T01:14:58.203Z,11.65
2023-01-23T01:20:02.642Z,12.82
2023-01-23T01:25:07.964Z,12.73
2023-01-23T01:30:14.839Z,12.80
2023-01-23T01:35:19.348Z,14.85
2023-01-23T01:40:25.948Z,13.48
2023-01-23T01:46:08.523Z,13.40
2023-01-23T01:51:18.178Z,13.32
2023-01-23T01:56:22.706Z,12.10
2023-01-23T02:01:28.867Z,13.00
2023-01-23T02:06:33.799Z,14.75
2023-01-23T02:11:38.649Z,15.15
2023-01-23T02:16:50.567Z,16.65
2023-01-23T02:22:05.329Z,17.42
2023-01-23T02:27:11.317Z,14.23
2023-01-23T02:32:15.940Z,13.50
2023-01-23T02:37:22.077Z,14.30
2023-01-23T02:42:28.372Z,15.30
2023-01-23T02:47:33.853Z,15.95
2023-01-23T02:52:38.192Z,16.33
2023-01-23T02:57:45.249Z,17.17
2023-01-23T03:02:50.955Z,15.60
2023-01-23T03:07:55.462Z,16.02
2023-01-23T03:13:07.537Z,12.47
2023-01-23T03:18:11.812Z,13.07
2023-01-23T03:23:16.783Z,15.73
2023-01-23T03:28:39.830Z,14.47
2023-01-23T03:33:45.727Z,16.30
2023-01-23T03:39:05.057Z,18.27
2023-01-23T03:44:11.693Z,19.38
2023-01-23T03:49:17.255Z,11.77
2023-01-23T03:54:23.049Z,11.55
2023-01-23T03:59:30.048Z,12.43
2023-01-23T04:04:35.620Z,13.85
2023-01-23T04:09:43.527Z,14.82
2023-01-23T04:14:50.152Z,15.97
2023-01-23T04:19:54.649Z,14.48
2023-01-23T04:24:59.093Z,14.18
2023-01-23T04:30:05.267Z,15.90
2023-01-23T04:35:12.049Z,14.73
2023-01-23T04:40:19.463Z,14.43
2023-01-23T04:45:35.192Z,13.05
2023-01-23T04:50:52.371Z,13.25
2023-01-23T04:55:56.900Z,13.63
2023-01-23T05:01:08.563Z,15.18
2023-01-23T05:06:14.687Z,15.68
2023-01-23T05:11:20.745Z,13.15
2023-01-23T05:16:26.828Z,11.50
2023-01-23T05:22:06.521Z,12.43
2023-01-23T05:27:11.359Z,10.53
2023-01-23T05:32:19.947Z,15.20
2023-01-23T05:37:32.627Z,15.73
2023-01-23T05:42:41.210Z,14.93
2023-01-23T05:48:12.818Z,13.63
2023-01-23T05:53:17.125Z,11.00
2023-01-23T05:58:21.678Z,13.02
2023-01-23T06:03:59.739Z,13.32
2023-01-23T06:09:26.976Z,13.30
2023-01-23T06:14:31.283Z,10.70
2023-01-23T06:19:37.056Z,12.93
2023-01-23T06:24:41.908Z,12.60
2023-01-23T06:29:47.341Z,11.82
2023-01-23T06:34:55.849Z,13.23
2023-01-23T06:40:00.721Z,10.85
2023-01-23T06:45:05.869Z,12.95
2023-01-23T06:50:12.752Z,11.37
2023-01-23T06:55:17.429Z,11.90
2023-01-23T07:00:23.025Z,12.10
2023-01-23T07:05:31.538Z,12.30
2023-01-23T07:10:37.821Z,12.95
2023-01-23T07:15:42.573Z,11.75
2023-01-23T07:20:49.874Z,9.82
2023-01-23T07:26:00.596Z,10.90
2023-01-23T07:31:07.741Z,11.98
2023-01-23T07:36:15.185Z,12.75
2023-01-23T07:41:19.573Z,13.77
2023-01-23T07:46:25.940Z,14.95
2023-01-23T07:51:31.730Z,14.13
2023-01-23T07:56:36.307Z,16.45
2023-01-23T08:01:40.631Z,15.68
2023-01-23T08:06:46.877Z,14.80
2023-01-23T08:11:55.458Z,17.60
2023-01-23T08:17:01.239Z,17.02
2023-01-23T08:27:13.956Z,17.03
2023-01-23T08:32:18.266Z,16.25
2023-01-23T08:37:24.149Z,15.85
2023-01-23T08:47:36.700Z,14.75
2023-01-23T08:52:42.764Z,14.30
2023-01-23T09:02:51.688Z,15.40
2023-01-23T09:08:00.697Z,14.40
2023-01-23T09:13:05.499Z,14.25
2023-01-23T09:18:10.084Z,15.40
2023-01-23T09:23:16.206Z,15.95
2023-01-23T09:28:20.647Z,16.17
2023-01-23T09:33:27.272Z,15.73
2023-01-23T09:38:34.238Z,15.70
2023-01-23T09:43:46.086Z,16.70
2023-01-23T09:48:57.498Z,17.40
2023-01-23T09:54:12.539Z,15.95
2023-01-23T09:59:35.052Z,15.40
2023-01-23T10:04:39.435Z,16.38
2023-01-23T10:10:06.876Z,17.48
2023-01-23T10:15:35.363Z,17.30
2023-01-23T10:20:58.320Z,18.70
2023-01-23T10:26:06.059Z,17.88
2023-01-23T10:31:14.168Z,18.60
2023-01-23T10:36:27.397Z,19.80
2023-01-23T10:41:34.640Z,21.33
2023-01-23T10:46:47.966Z,26.80
2023-01-23T10:51:52.345Z,26.77
2023-01-23T10:57:01.149Z,23.83
2023-01-23T11:02:21.842Z,25.77
2023-01-23T11:07:28.550Z,28.52
2023-01-23T11:12:35.578Z,25.33
2023-01-23T11:17:40.194Z,30.40
2023-01-23T11:22:45.165Z,31.38
2023-01-23T11:28:00.272Z,30.43
2023-01-23T11:33:14.480Z,29.27
2023-01-23T11:38:30.239Z,25.15
2023-01-23T11:43:37.139Z,25.17
2023-01-23T11:54:05.431Z,20.20
2023-01-23T11:59:51.233Z,21.25
2023-01-23T12:05:17.548Z,22.80
2023-01-23T12:15:40.196Z,22.70
2023-01-23T12:20:56.017Z,23.38
2023-01-23T12:26:08.933Z,23.98
2023-01-23T12:31:30.264Z,25.02
2023-01-23T12:37:11.709Z,25.80
2023-01-23T12:42:24.078Z,24.50
2023-01-23T12:47:34.293Z,25.70
2023-01-23T12:52:44.627Z,22.95
2023-01-23T12:57:59.920Z,25.75
2023-01-23T13:03:22.743Z,29.50
2023-01-23T13:08:43.293Z,24.70
2023-01-23T13:13:55.483Z,29.15
2023-01-23T13:19:18.278Z,26.88
2023-01-23T13:25:02.519Z,25.73
2023-01-23T13:30:36.443Z,31.63
2023-01-23T13:35:56.411Z,28.33
2023-01-23T13:41:33.990Z,30.55
2023-01-23T14:25:20.112Z,31.58
2023-01-23T14:30:29.129Z,30.77
2023-01-23T14:35:34.357Z,35.50
2023-01-23T14:40:50.707Z,35.58
2023-01-23T14:46:03.763Z,31.23
2023-01-23T14:51:20.138Z,28.90
2023-01-23T14:56:28.850Z,30.35
2023-01-23T15:01:36.050Z,34.45
2023-01-23T15:06:45.575Z,34.88
2023-01-23T15:11:52.971Z,40.90
2023-01-23T15:17:17.503Z,37.65
2023-01-23T15:22:29.330Z,40.72
2023-01-23T15:27:40.984Z,35.47
2023-01-23T15:32:53.916Z,38.63
2023-01-23T15:38:10.674Z,39.85
2023-01-23T15:43:30.901Z,39.00
2023-01-23T15:48:45.983Z,38.33
2023-01-23T15:54:07.949Z,36.70
2023-01-23T15:59:23.573Z,40.67
2023-01-23T16:04:50.010Z,37.78
2023-01-23T16:10:20.439Z,40.92
2023-01-23T16:15:31.955Z,39.67
2023-01-23T16:20:49.972Z,41.47
2023-01-23T16:25:59.279Z,47.58
2023-01-23T16:31:17.049Z,44.22
2023-01-23T16:36:29.404Z,52.38
2023-01-23T16:47:07.233Z,53.42
2023-01-23T16:52:21.782Z,53.45
2023-01-23T16:57:39.053Z,53.08
2023-01-23T17:02:50.176Z,50.10
2023-01-23T17:08:13.049Z,54.42
2023-01-23T17:13:28.587Z,56.28
2023-01-23T17:18:45.494Z,57.20
2023-01-23T17:23:55.435Z,55.25
2023-01-23T17:29:09.497Z,54.95
2023-01-23T17:34:26.482Z,50.03
2023-01-23T17:39:38.401Z,57.55
2023-01-23T17:45:22.216Z,52.15
2023-01-23T17:50:35.433Z,56.20
2023-01-23T17:55:48.327Z,50.35
2023-01-23T18:00:57.377Z,58.08
2023-01-23T18:06:06.128Z,49.45
2023-01-23T18:11:22.308Z,55.13
2023-01-23T18:16:35.847Z,52.70
2023-01-23T18:21:50.249Z,48.13
2023-01-23T18:27:16.135Z,52.10
2023-01-23T18:33:29.997Z,47.33
2023-01-23T18:39:00.559Z,40.10
2023-01-23T18:44:35.872Z,41.42
2023-01-23T18:49:52.676Z,45.47
2023-01-23T18:55:13.697Z,44.60
2023-01-23T19:01:01.156Z,48.35
2023-01-23T19:06:18.632Z,48.80
2023-01-23T19:11:47.147Z,52.65
2023-01-23T19:17:17.499Z,50.83
2023-01-23T19:22:33.318Z,43.53
2023-01-23T19:27:43.098Z,42.90
2023-01-23T19:32:50.121Z,41.88
2023-01-23T19:37:56.247Z,41.63
2023-01-23T19:43:15.251Z,39.72
2023-01-23T19:48:21.819Z,43.42
2023-01-23T19:53:26.856Z,40.85
2023-01-23T19:58:32.288Z,43.13
2023-01-23T20:03:39.596Z,45.28
2023-01-23T20:08:44.589Z,44.58
2023-01-23T20:13:49.812Z,40.50
2023-01-23T20:18:56.982Z,43.03
2023-01-23T20:24:01.976Z,34.08
2023-01-23T20:29:07.473Z,31.13
2023-01-23T20:34:13.774Z,29.20
2023-01-23T20:39:18.444Z,27.38
2023-01-23T20:44:23.054Z,30.50
2023-01-23T20:49:29.445Z,32.53
2023-01-23T20:54:33.883Z,26.40
2023-01-23T20:59:38.375Z,27.15
2023-01-23T21:04:45.551Z,24.52
2023-01-23T21:09:50.112Z,29.52
2023-01-23T21:14:54.723Z,25.67
2023-01-23T21:20:00.616Z,21.38
2023-01-23T21:25:05.560Z,20.25
2023-01-23T21:30:11.443Z,20.17
2023-01-23T21:35:17.792Z,19.98
2023-01-23T21:40:22.348Z,18.73
2023-01-23T21:45:27.283Z,17.15
2023-01-23T21:50:33.114Z,19.87
2023-01-23T22:00:59.206Z,17.63
2023-01-23T22:06:05.132Z,17.63
2023-01-23T22:11:10.480Z,16.17
2023-01-23T22:16:14.980Z,17.83
2023-01-23T22:21:21.110Z,17.08
2023-01-23T22:26:25.753Z,18.98
2023-01-23T22:31:30.125Z,13.20
2023-01-23T22:36:36.395Z,13.65
2023-01-23T22:41:41.031Z,13.60
2023-01-23T22:46:46.063Z,14.75
2023-01-23T22:51:52.790Z,14.20
2023-01-23T22:56:57.247Z,14.70
2023-01-23T23:02:01.612Z,13.43
2023-01-23T23:07:07.451Z,13.40
2023-01-23T23:12:13.518Z,15.35
2023-01-23T23:22:23.813Z,13.82
2023-01-23T23:27:28.355Z,14.48
2023-01-23T23:32:32.838Z,17.33
2023-01-23T23:37:38.721Z,16.50
2023-01-23T23:47:47.191Z,15.48
2023-01-23T23:52:53.163Z,16.67
2023-01-23T23:57:57.644Z,18.67
